Time,TemperatureF,DewpointF,PressureIn,WindDirection,WindDirectionDegrees,WindSpeedMPH,WindSpeedGustMPH,Humidity,HourlyPrecipIn,Conditions,Clouds,dailyrainin,SolarRadiationWatts/m^2,SoftwareType,DateUTC
2013-11-05 21:14:00,46.1,43.3,30.51,SSW,194,0.0,0.0,90,0.00,,,0.00,0,Wunderground v.1.15,2013-11-06 02:14:00,
2013-11-05 21:18:00,46.0,43.2,30.51,SSW,194,0.0,0.0,90,0.00,,,0.00,0,Wunderground v.1.15,2013-11-06 02:18:00,
2013-11-05 21:20:00,46.0,43.2,30.51,SSW,194,0.0,0.0,90,0.00,,,0.00,0,Wunderground v.1.15,2013-11-06 02:20:00,
2013-11-05 21:22:00,46.0,43.2,30.51,SSW,194,0.0,0.0,90,0.00,,,0.00,0,Wunderground v.1.15,2013-11-06 02:22:00,
2013-11-05 21:28:00,45.8,43.0,30.51,SSW,194,0.0,0.0,90,0.00,,,0.00,0,Wunderground v.1.15,2013-11-06 02:28:00,
2013-11-05 21:34:00,45.7,42.9,30.51,SSW,194,0.0,0.0,90,0.00,,,0.00,0,Wunderground v.1.15,2013-11-06 02:34:00,
2013-11-05 21:40:00,45.5,42.7,30.50,SSW,194,0.0,0.0,90,0.00,,,0.00,0,Wunderground v.1.15,2013-11-06 02:40:00,
2013-11-05 21:46:00,45.3,42.5,30.50,SSW,194,0.0,0.0,90,0.00,,,0.00,0,Wunderground v.1.15,2013-11-06 02:46:00,
2013-11-05 21:52:00,45.1,42.3,30.50,SSW,194,0.0,0.0,90,0.00,,,0.00,0,Wunderground v.1.15,2013-11-06 02:52:00,
2013-11-05 21:58:00,44.8,42.3,30.50,SSW,194,0.0,0.0,91,0.00,,,0.00,0,Wunderground v.1.15,2013-11-06 02:58:00,
2013-11-05 22:04:00,44.5,42.0,30.49,SSW,194,0.0,0.0,91,0.00,,,0.00,0,Wunderground v.1.15,2013-11-06 03:04:00,
2013-11-05 22:10:00,44.5,42.0,30.49,SSW,194,0.0,0.0,91,0.00,,,0.00,0,Wunderground v.1.15,2013-11-06 03:10:00,
2013-11-05 22:16:00,44.3,41.8,30.49,SSW,194,0.0,0.0,91,0.00,,,0.00,0,Wunderground v.1.15,2013-11-06 03:16:00,
2013-11-05 22:22:00,44.2,41.7,30.49,SSW,194,0.0,0.0,91,0.00,,,0.00,0,Wunderground v.1.15,2013-11-06 03:22:00,
2013-11-05 22:28:00,44.0,41.5,30.48,SSW,194,0.0,0.0,91,0.00,,,0.00,0,Wunderground v.1.15,2013-11-06 03:28:00,
2013-11-05 22:34:00,43.9,41.4,30.48,SSW,194,0.0,0.0,91,0.00,,,0.00,0,Wunderground v.1.15,2013-11-06 03:34:00,
2013-11-05 22:40:00,43.8,41.6,30.48,SSW,194,0.0,0.0,92,0.00,,,0.00,0,Wunderground v.1.15,2013-11-06 03:40:00,
2013-11-05 22:46:00,43.7,41.5,30.48,SSW,194,0.0,0.0,92,0.00,,,0.00,0,Wunderground v.1.15,2013-11-06 03:46:00,
2013-11-05 22:52:00,43.7,41.5,30.48,SSW,194,0.0,0.0,92,0.00,,,0.00,0,Wunderground v.1.15,2013-11-06 03:52:00,
2013-11-05 22:58:00,43.5,41.3,30.47,SSW,194,0.0,0.0,92,0.00,,,0.00,0,Wunderground v.1.15,2013-11-06 03:58:00,
2013-11-05 23:04:00,43.4,41.2,30.47,SSW,194,0.0,0.0,92,0.00,,,0.00,0,Wunderground v.1.15,2013-11-06 04:04:00,
2013-11-05 23:10:00,43.2,41.0,30.47,SSW,194,0.0,0.0,92,0.00,,,0.00,0,Wunderground v.1.15,2013-11-06 04:10:00,
2013-11-05 23:16:00,43.0,40.8,30.47,SSW,194,0.0,0.0,92,0.00,,,0.00,0,Wunderground v.1.15,2013-11-06 04:16:00,
2013-11-05 23:22:00,42.8,40.6,30.47,SSW,194,0.0,0.0,92,0.00,,,0.00,0,Wunderground v.1.15,2013-11-06 04:22:00,
2013-11-05 23:28:00,42.7,40.5,30.47,SSW,194,0.0,0.0,92,0.00,,,0.00,0,Wunderground v.1.15,2013-11-06 04:28:00,
2013-11-05 23:34:00,42.5,40.3,30.47,SSW,194,0.0,0.0,92,0.00,,,0.00,0,Wunderground v.1.15,2013-11-06 04:34:00,
2013-11-05 23:40:00,42.3,40.4,30.48,SSW,194,0.0,0.0,93,0.00,,,0.00,0,Wunderground v.1.15,2013-11-06 04:40:00,
2013-11-05 23:46:00,42.2,40.3,30.48,SSW,194,0.0,0.0,93,0.00,,,0.00,0,Wunderground v.1.15,2013-11-06 04:46:00,
2013-11-05 23:52:00,42.1,40.2,30.48,SSW,194,0.0,0.0,93,0.00,,,0.00,0,Wunderground v.1.15,2013-11-06 04:52:00,
2013-11-05 23:58:00,42.0,40.1,30.48,SSW,194,0.0,0.0,93,0.00,,,0.00,0,Wunderground v.1.15,2013-11-06 04:58:00,